<?xml version="1.0" encoding="UTF-8" standalone="no" ?>
<gpx xmlns="http://www.topografix.com/GPX/1/1" xmlns:xsi="http://www.w3.org/2001/XMLSchema-instance" xsi:schemaLocation="http://www.topografix.com/GPX/1/1 http://www.topografix.com/GPX/1/1/gpx.xsd" version="1.1" creator="VisuGPX - https://www.visugpx.com">
  <metadata>
    <name>Etape 2 Férel - Les Moûtiers</name>
    <desc><![CDATA[Randonnée vélo Rennes - Hendaye, empruntant la Vélodyssée à partir de Saint-Brevin-Les-Pins. ]]></desc>
  </metadata>
  <trk>
    <name><![CDATA[Sequence 17]]></name>
    <trkseg>
      <trkpt lat="47.27666" lon="-2.21759">
        <ele>9</ele>
        <time>2016-07-22T07:49:42Z</time>
      </trkpt>
      <trkpt lat="47.27666" lon="-2.21758">
        <ele>9</ele>
        <time>2016-07-22T07:49:47Z</time>
      </trkpt>
      <trkpt lat="47.2767" lon="-2.21745">
        <ele>12</ele>
        <time>2016-07-22T07:49:52Z</time>
      </trkpt>
      <trkpt lat="47.27683" lon="-2.2174">
        <ele>12</ele>
        <time>2016-07-22T07:49:57Z</time>
      </trkpt>
      <trkpt lat="47.27701" lon="-2.21735">
        <ele>14</ele>
        <time>2016-07-22T07:50:03Z</time>
      </trkpt>
      <trkpt lat="47.27716" lon="-2.21731">
        <ele>18</ele>
        <time>2016-07-22T07:50:07Z</time>
      </trkpt>
      <trkpt lat="47.2774" lon="-2.21723">
        <ele>14</ele>
        <time>2016-07-22T07:50:12Z</time>
      </trkpt>
      <trkpt lat="47.27773" lon="-2.21713">
        <ele>18</ele>
        <time>2016-07-22T07:50:20Z</time>
      </trkpt>
      <trkpt lat="47.27778" lon="-2.21711">
        <ele>20</ele>
        <time>2016-07-22T07:50:22Z</time>
      </trkpt>
      <trkpt lat="47.27811" lon="-2.21707">
        <ele>24</ele>
        <time>2016-07-22T07:50:30Z</time>
      </trkpt>
      <trkpt lat="47.27829" lon="-2.21701">
        <ele>22</ele>
        <time>2016-07-22T07:50:34Z</time>
      </trkpt>
      <trkpt lat="47.27841" lon="-2.21699">
        <ele>22</ele>
        <time>2016-07-22T07:50:37Z</time>
      </trkpt>
      <trkpt lat="47.27865" lon="-2.21693">
        <ele>22</ele>
        <time>2016-07-22T07:50:46Z</time>
      </trkpt>
      <trkpt lat="47.27865" lon="-2.21693">
        <ele>22</ele>
        <time>2016-07-22T07:50:47Z</time>
      </trkpt>
      <trkpt lat="47.27869" lon="-2.21689">
        <ele>17</ele>
        <time>2016-07-22T07:50:53Z</time>
      </trkpt>
      <trkpt lat="47.27869" lon="-2.21693">
        <ele>14</ele>
        <time>2016-07-22T07:50:57Z</time>
      </trkpt>
      <trkpt lat="47.27869" lon="-2.21696">
        <ele>13</ele>
        <time>2016-07-22T07:51:02Z</time>
      </trkpt>
      <trkpt lat="47.2787" lon="-2.21694">
        <ele>15</ele>
        <time>2016-07-22T07:51:08Z</time>
      </trkpt>
      <trkpt lat="47.27884" lon="-2.21686">
        <ele>13</ele>
        <time>2016-07-22T07:51:13Z</time>
      </trkpt>
      <trkpt lat="47.27905" lon="-2.21676">
        <ele>12</ele>
        <time>2016-07-22T07:51:18Z</time>
      </trkpt>
      <trkpt lat="47.27948" lon="-2.21667">
        <ele>16</ele>
        <time>2016-07-22T07:51:26Z</time>
      </trkpt>
      <trkpt lat="47.27955" lon="-2.21664">
        <ele>14</ele>
        <time>2016-07-22T07:51:27Z</time>
      </trkpt>
      <trkpt lat="47.27999" lon="-2.21655">
        <ele>16</ele>
        <time>2016-07-22T07:51:35Z</time>
      </trkpt>
      <trkpt lat="47.28031" lon="-2.21647">
        <ele>16</ele>
        <time>2016-07-22T07:51:41Z</time>
      </trkpt>
      <trkpt lat="47.28056" lon="-2.2164">
        <ele>14</ele>
        <time>2016-07-22T07:51:46Z</time>
      </trkpt>
      <trkpt lat="47.28065" lon="-2.21637">
        <ele>15</ele>
        <time>2016-07-22T07:51:48Z</time>
      </trkpt>
      <trkpt lat="47.28085" lon="-2.21632">
        <ele>15</ele>
        <time>2016-07-22T07:51:52Z</time>
      </trkpt>
      <trkpt lat="47.28117" lon="-2.21623">
        <ele>13</ele>
        <time>2016-07-22T07:51:58Z</time>
      </trkpt>
      <trkpt lat="47.28137" lon="-2.21617">
        <ele>12</ele>
        <time>2016-07-22T07:52:02Z</time>
      </trkpt>
      <trkpt lat="47.28161" lon="-2.2161">
        <ele>10</ele>
        <time>2016-07-22T07:52:07Z</time>
      </trkpt>
      <trkpt lat="47.28208" lon="-2.216">
        <ele>11</ele>
        <time>2016-07-22T07:52:16Z</time>
      </trkpt>
      <trkpt lat="47.28214" lon="-2.21599">
        <ele>10</ele>
        <time>2016-07-22T07:52:17Z</time>
      </trkpt>
      <trkpt lat="47.28238" lon="-2.21589">
        <ele>14</ele>
        <time>2016-07-22T07:52:22Z</time>
      </trkpt>
      <trkpt lat="47.28269" lon="-2.21586">
        <ele>11</ele>
        <time>2016-07-22T07:52:28Z</time>
      </trkpt>
      <trkpt lat="47.28297" lon="-2.21577">
        <ele>14</ele>
        <time>2016-07-22T07:52:36Z</time>
      </trkpt>
      <trkpt lat="47.28297" lon="-2.21575">
        <ele>15</ele>
        <time>2016-07-22T07:52:39Z</time>
      </trkpt>
      <trkpt lat="47.28306" lon="-2.21573">
        <ele>16</ele>
        <time>2016-07-22T07:52:46Z</time>
      </trkpt>
      <trkpt lat="47.28317" lon="-2.21574">
        <ele>15</ele>
        <time>2016-07-22T07:52:49Z</time>
      </trkpt>
      <trkpt lat="47.28339" lon="-2.21563">
        <ele>13</ele>
        <time>2016-07-22T07:52:53Z</time>
      </trkpt>
      <trkpt lat="47.28363" lon="-2.21555">
        <ele>14</ele>
        <time>2016-07-22T07:52:57Z</time>
      </trkpt>
      <trkpt lat="47.28401" lon="-2.21545">
        <ele>11</ele>
        <time>2016-07-22T07:53:02Z</time>
      </trkpt>
      <trkpt lat="47.2843" lon="-2.21549">
        <ele>10</ele>
        <time>2016-07-22T07:53:07Z</time>
      </trkpt>
      <trkpt lat="47.28466" lon="-2.2153">
        <ele>10</ele>
        <time>2016-07-22T07:53:13Z</time>
      </trkpt>
      <trkpt lat="47.2851" lon="-2.21512">
        <ele>8</ele>
        <time>2016-07-22T07:53:21Z</time>
      </trkpt>
      <trkpt lat="47.28519" lon="-2.21513">
        <ele>7</ele>
        <time>2016-07-22T07:53:23Z</time>
      </trkpt>
      <trkpt lat="47.28546" lon="-2.21505">
        <ele>11</ele>
        <time>2016-07-22T07:53:30Z</time>
      </trkpt>
      <trkpt lat="47.2856" lon="-2.21502">
        <ele>10</ele>
        <time>2016-07-22T07:53:33Z</time>
      </trkpt>
      <trkpt lat="47.28578" lon="-2.21493">
        <ele>6</ele>
        <time>2016-07-22T07:53:37Z</time>
      </trkpt>
      <trkpt lat="47.28598" lon="-2.2149">
        <ele>7</ele>
        <time>2016-07-22T07:53:42Z</time>
      </trkpt>
      <trkpt lat="47.28618" lon="-2.21484">
        <ele>6</ele>
        <time>2016-07-22T07:53:47Z</time>
      </trkpt>
      <trkpt lat="47.28623" lon="-2.2148">
        <ele>9</ele>
        <time>2016-07-22T07:53:52Z</time>
      </trkpt>
      <trkpt lat="47.28626" lon="-2.21475">
        <ele>9</ele>
        <time>2016-07-22T07:53:57Z</time>
      </trkpt>
      <trkpt lat="47.28626" lon="-2.21435">
        <ele>4</ele>
        <time>2016-07-22T07:54:05Z</time>
      </trkpt>
      <trkpt lat="47.28625" lon="-2.21423">
        <ele>2</ele>
        <time>2016-07-22T07:54:07Z</time>
      </trkpt>
      <trkpt lat="47.2862" lon="-2.21392">
        <ele>2</ele>
        <time>2016-07-22T07:54:12Z</time>
      </trkpt>
      <trkpt lat="47.28614" lon="-2.21366">
        <ele>1</ele>
        <time>2016-07-22T07:54:17Z</time>
      </trkpt>
      <trkpt lat="47.28616" lon="-2.21338">
        <ele>1</ele>
        <time>2016-07-22T07:54:22Z</time>
      </trkpt>
      <trkpt lat="47.28624" lon="-2.21302">
        <ele>2</ele>
        <time>2016-07-22T07:54:27Z</time>
      </trkpt>
      <trkpt lat="47.2863" lon="-2.2126">
        <ele>3</ele>
        <time>2016-07-22T07:54:32Z</time>
      </trkpt>
      <trkpt lat="47.28627" lon="-2.21206">
        <ele>1</ele>
        <time>2016-07-22T07:54:41Z</time>
      </trkpt>
      <trkpt lat="47.28626" lon="-2.21187">
        <ele>6.4</ele>
        <time>2016-07-22T07:54:44Z</time>
      </trkpt>
      <trkpt lat="47.28623" lon="-2.2117">
        <ele>1</ele>
        <time>2016-07-22T07:54:47Z</time>
      </trkpt>
      <trkpt lat="47.28619" lon="-2.21147">
        <ele>3</ele>
        <time>2016-07-22T07:54:52Z</time>
      </trkpt>
      <trkpt lat="47.2861" lon="-2.21127">
        <ele>4</ele>
        <time>2016-07-22T07:55:01Z</time>
      </trkpt>
      <trkpt lat="47.28615" lon="-2.21127">
        <ele>6</ele>
        <time>2016-07-22T07:55:03Z</time>
      </trkpt>
      <trkpt lat="47.28617" lon="-2.21131">
        <ele>8</ele>
        <time>2016-07-22T07:55:07Z</time>
      </trkpt>
      <trkpt lat="47.28621" lon="-2.21138">
        <ele>14</ele>
        <time>2016-07-22T07:55:14Z</time>
      </trkpt>
      <trkpt lat="47.28621" lon="-2.21139">
        <ele>14</ele>
        <time>2016-07-22T07:55:17Z</time>
      </trkpt>
      <trkpt lat="47.28618" lon="-2.21142">
        <ele>14</ele>
        <time>2016-07-22T07:55:23Z</time>
      </trkpt>
      <trkpt lat="47.28619" lon="-2.21141">
        <ele>13</ele>
        <time>2016-07-22T07:55:27Z</time>
      </trkpt>
      <trkpt lat="47.28617" lon="-2.21129">
        <ele>13</ele>
        <time>2016-07-22T07:55:32Z</time>
      </trkpt>
      <trkpt lat="47.28614" lon="-2.21123">
        <ele>11</ele>
        <time>2016-07-22T07:55:40Z</time>
      </trkpt>
      <trkpt lat="47.28614" lon="-2.21124">
        <ele>10</ele>
        <time>2016-07-22T07:55:42Z</time>
      </trkpt>
      <trkpt lat="47.28615" lon="-2.21124">
        <ele>10</ele>
        <time>2016-07-22T07:55:51Z</time>
      </trkpt>
      <trkpt lat="47.28615" lon="-2.21124">
        <ele>10</ele>
        <time>2016-07-22T07:55:52Z</time>
      </trkpt>
      <trkpt lat="47.28615" lon="-2.21124">
        <ele>10</ele>
        <time>2016-07-22T07:55:57Z</time>
      </trkpt>
      <trkpt lat="47.28611" lon="-2.21117">
        <ele>12</ele>
        <time>2016-07-22T07:56:02Z</time>
      </trkpt>
      <trkpt lat="47.28606" lon="-2.21067">
        <ele>14</ele>
        <time>2016-07-22T07:56:11Z</time>
      </trkpt>
      <trkpt lat="47.28606" lon="-2.21061">
        <ele>14</ele>
        <time>2016-07-22T07:56:12Z</time>
      </trkpt>
      <trkpt lat="47.28601" lon="-2.2102">
        <ele>16</ele>
        <time>2016-07-22T07:56:18Z</time>
      </trkpt>
      <trkpt lat="47.28596" lon="-2.2099">
        <ele>11</ele>
        <time>2016-07-22T07:56:22Z</time>
      </trkpt>
      <trkpt lat="47.28596" lon="-2.20958">
        <ele>10</ele>
        <time>2016-07-22T07:56:27Z</time>
      </trkpt>
      <trkpt lat="47.2859" lon="-2.20952">
        <ele>4</ele>
        <time>2016-07-22T07:56:32Z</time>
      </trkpt>
      <trkpt lat="47.28587" lon="-2.20934">
        <ele>4</ele>
        <time>2016-07-22T07:56:40Z</time>
      </trkpt>
      <trkpt lat="47.28588" lon="-2.20932">
        <ele>5</ele>
        <time>2016-07-22T07:56:42Z</time>
      </trkpt>
    </trkseg>
  </trk>
</gpx>